createdAt,value
2023-03-17T00:00:21.066Z,17.04
2023-03-17T00:01:21.089Z,17.03
2023-03-17T00:02:21.081Z,17.01
2023-03-17T00:03:21.083Z,17.01
2023-03-17T00:04:21.031Z,17.01
2023-03-17T00:05:21.045Z,17.03
2023-03-17T00:06:21.004Z,17.01
2023-03-17T00:07:20.997Z,17.03
2023-03-17T00:08:21.079Z,17.01
2023-03-17T00:09:20.999Z,17.03
2023-03-17T00:10:20.960Z,17.01
2023-03-17T00:11:20.948Z,17.03
2023-03-17T00:12:20.967Z,17.01
2023-03-17T00:13:20.929Z,17.01
2023-03-17T00:14:20.916Z,17.01
2023-03-17T00:15:20.951Z,17.01
2023-03-17T00:16:20.965Z,17.03
2023-03-17T00:17:20.884Z,17.00
2023-03-17T00:18:20.877Z,17.01
2023-03-17T00:19:20.909Z,17.01
2023-03-17T00:20:20.851Z,17.00
2023-03-17T00:21:20.867Z,17.01
2023-03-17T00:22:20.860Z,16.98
2023-03-17T00:23:20.818Z,17.00
2023-03-17T00:24:20.832Z,17.00
2023-03-17T00:25:20.823Z,17.01
2023-03-17T00:26:20.795Z,16.98
2023-03-17T00:27:20.778Z,16.98
2023-03-17T00:28:20.771Z,17.00
2023-03-17T00:29:20.795Z,16.98
2023-03-17T00:30:20.766Z,16.98
2023-03-17T00:31:20.885Z,17.00
2023-03-17T00:32:23.172Z,17.00
2023-03-17T00:33:20.711Z,17.00
2023-03-17T00:34:20.701Z,16.98
2023-03-17T00:35:20.700Z,16.98
2023-03-17T00:36:20.680Z,16.98
2023-03-17T00:37:20.781Z,16.98
2023-03-17T00:38:20.677Z,16.98
2023-03-17T00:39:20.677Z,16.98
2023-03-17T00:40:20.640Z,16.97
2023-03-17T00:41:20.626Z,16.98
2023-03-17T00:42:20.642Z,16.98
2023-03-17T00:43:20.605Z,16.97
2023-03-17T00:44:20.600Z,16.97
2023-03-17T00:45:20.578Z,16.97
2023-03-17T00:46:20.640Z,16.98
2023-03-17T00:47:20.585Z,16.97
2023-03-17T00:48:20.598Z,16.97
2023-03-17T00:49:20.547Z,16.97
2023-03-17T00:50:20.526Z,16.97
2023-03-17T00:51:20.563Z,16.96
2023-03-17T00:52:20.529Z,16.97
2023-03-17T00:53:20.524Z,16.97
2023-03-17T00:54:20.487Z,16.97
2023-03-17T00:55:20.514Z,16.96
2023-03-17T00:56:20.461Z,16.97
2023-03-17T00:57:20.456Z,16.97
2023-03-17T00:58:20.468Z,16.97
2023-03-17T00:59:20.526Z,16.96
2023-03-17T01:00:20.420Z,16.97
2023-03-17T01:01:20.484Z,16.97
2023-03-17T01:02:20.423Z,16.96
2023-03-17T01:03:20.389Z,16.96
2023-03-17T01:04:20.397Z,16.96
2023-03-17T01:05:20.367Z,16.96
2023-03-17T01:06:20.352Z,16.96
2023-03-17T01:07:20.369Z,16.94
2023-03-17T01:08:20.359Z,16.96
2023-03-17T01:09:20.526Z,16.96
2023-03-17T01:10:20.312Z,16.96
2023-03-17T01:11:20.305Z,16.96
2023-03-17T01:12:20.293Z,16.96
2023-03-17T01:13:20.280Z,16.94
2023-03-17T01:14:20.392Z,16.94
2023-03-17T01:15:20.262Z,16.94
2023-03-17T01:16:20.306Z,16.94
2023-03-17T01:17:20.236Z,16.94
2023-03-17T01:18:20.274Z,16.93
2023-03-17T01:19:20.752Z,16.94
2023-03-17T01:20:20.204Z,16.93
2023-03-17T01:21:20.198Z,16.94
2023-03-17T01:22:20.183Z,16.94
2023-03-17T01:23:20.172Z,16.93
2023-03-17T01:24:20.183Z,16.93
2023-03-17T01:25:20.239Z,16.94
2023-03-17T01:26:20.155Z,16.94
2023-03-17T01:27:20.138Z,16.93
2023-03-17T01:28:20.188Z,16.93
2023-03-17T01:29:20.109Z,16.93
2023-03-17T01:30:20.101Z,16.93
2023-03-17T01:31:20.124Z,16.93
2023-03-17T01:32:20.075Z,16.93
2023-03-17T01:33:20.075Z,16.93
2023-03-17T01:34:20.081Z,16.93
2023-03-17T01:35:20.043Z,16.93
2023-03-17T01:36:20.036Z,16.93
2023-03-17T01:37:20.025Z,16.93
2023-03-17T01:38:20.019Z,16.91
2023-03-17T01:39:20.019Z,16.91
2023-03-17T01:40:20.019Z,16.91
2023-03-17T01:41:20.000Z,16.91
2023-03-17T01:42:19.969Z,16.91
2023-03-17T01:43:19.955Z,16.91
2023-03-17T01:44:19.973Z,16.93
2023-03-17T01:45:19.934Z,16.91
2023-03-17T01:46:19.957Z,16.91
2023-03-17T01:47:19.912Z,16.91
2023-03-17T01:48:19.901Z,16.91
2023-03-17T01:49:19.904Z,16.91
2023-03-17T01:50:19.952Z,16.91
2023-03-17T01:51:19.868Z,16.89
2023-03-17T01:52:19.861Z,16.89
2023-03-17T01:53:19.847Z,16.91
2023-03-17T01:54:19.851Z,16.91
2023-03-17T01:55:19.827Z,16.89
2023-03-17T01:56:19.937Z,16.91
2023-03-17T01:57:19.834Z,16.89
2023-03-17T01:58:19.796Z,16.91
2023-03-17T01:59:19.813Z,16.89
2023-03-17T02:00:19.777Z,16.88
2023-03-17T02:01:19.823Z,16.89
2023-03-17T02:02:19.766Z,16.91
2023-03-17T02:03:19.742Z,16.89
2023-03-17T02:04:19.813Z,16.89
2023-03-17T02:05:20.020Z,16.89
2023-03-17T02:06:19.711Z,16.91
2023-03-17T02:07:19.702Z,16.89
2023-03-17T02:08:19.683Z,16.89
2023-03-17T02:09:19.677Z,16.89
2023-03-17T02:10:19.692Z,16.88
2023-03-17T02:11:19.651Z,16.88
2023-03-17T02:12:19.667Z,16.88
2023-03-17T02:13:19.657Z,16.89
2023-03-17T02:14:19.617Z,16.89
2023-03-17T02:15:19.609Z,16.88
2023-03-17T02:16:19.645Z,16.88
2023-03-17T02:17:19.728Z,16.89
2023-03-17T02:18:19.586Z,16.88
2023-03-17T02:19:19.568Z,16.88
2023-03-17T02:20:19.553Z,16.88
2023-03-17T02:21:19.545Z,16.89
2023-03-17T02:22:19.533Z,16.88
2023-03-17T02:23:19.554Z,16.86
2023-03-17T02:24:19.537Z,16.88
2023-03-17T02:25:19.499Z,16.88
2023-03-17T02:26:19.493Z,16.88
2023-03-17T02:27:19.479Z,16.88
2023-03-17T02:28:19.630Z,16.88
2023-03-17T02:29:19.487Z,16.86
2023-03-17T02:30:19.475Z,16.88
2023-03-17T02:31:19.458Z,16.88
2023-03-17T02:32:19.426Z,16.88
2023-03-17T02:33:19.422Z,16.88
2023-03-17T02:34:19.410Z,16.88
2023-03-17T02:35:20.194Z,16.88
2023-03-17T02:36:19.435Z,16.86
2023-03-17T02:37:19.380Z,16.86
2023-03-17T02:38:19.367Z,16.88
2023-03-17T02:39:19.369Z,16.86
2023-03-17T02:40:19.951Z,16.88
2023-03-17T02:41:19.338Z,16.88
2023-03-17T02:42:19.328Z,16.88
2023-03-17T02:43:19.326Z,16.86
2023-03-17T02:44:19.325Z,16.88
2023-03-17T02:45:19.316Z,16.88
2023-03-17T02:46:19.316Z,16.88
2023-03-17T02:47:19.276Z,16.88
2023-03-17T02:48:19.260Z,16.86
2023-03-17T02:49:19.288Z,16.88
2023-03-17T02:50:19.246Z,16.88
2023-03-17T02:51:19.230Z,16.86
2023-03-17T02:52:19.221Z,16.86
2023-03-17T02:53:19.217Z,16.86
2023-03-17T02:54:19.199Z,16.86
2023-03-17T02:55:19.211Z,16.85
2023-03-17T02:56:19.377Z,16.86
2023-03-17T02:57:19.180Z,16.85
2023-03-17T02:58:19.154Z,16.86
2023-03-17T02:59:19.148Z,16.86
2023-03-17T03:00:19.160Z,16.86
2023-03-17T03:01:19.197Z,16.86
2023-03-17T03:02:19.146Z,16.85
2023-03-17T03:03:19.105Z,16.86
2023-03-17T03:04:19.095Z,16.86
2023-03-17T03:05:19.197Z,16.85
2023-03-17T03:06:19.070Z,16.86
2023-03-17T03:07:19.077Z,16.83
2023-03-17T03:08:19.080Z,16.85
2023-03-17T03:09:19.041Z,16.85
2023-03-17T03:10:19.030Z,16.85
2023-03-17T03:11:19.067Z,16.86
2023-03-17T03:12:19.010Z,16.85
2023-03-17T03:13:18.998Z,16.85
2023-03-17T03:14:18.989Z,16.86
2023-03-17T03:15:18.976Z,16.86
2023-03-17T03:16:19.010Z,16.85
2023-03-17T03:17:19.008Z,16.85
2023-03-17T03:18:18.945Z,16.83
2023-03-17T03:19:18.951Z,16.85
2023-03-17T03:20:18.925Z,16.85
2023-03-17T03:21:18.961Z,16.85
2023-03-17T03:22:18.904Z,16.85
2023-03-17T03:23:18.893Z,16.83
2023-03-17T03:24:18.881Z,16.86
2023-03-17T03:25:18.869Z,16.85
2023-03-17T03:26:18.856Z,16.85
2023-03-17T03:27:18.877Z,16.83
2023-03-17T03:28:18.843Z,16.85
2023-03-17T03:29:18.848Z,16.85
2023-03-17T03:30:18.815Z,16.85
2023-03-17T03:31:18.873Z,16.83
2023-03-17T03:32:18.799Z,16.83
2023-03-17T03:33:18.815Z,16.83
2023-03-17T03:34:18.804Z,16.85
2023-03-17T03:35:18.768Z,16.85
2023-03-17T03:36:18.750Z,16.85
2023-03-17T03:37:18.741Z,16.83
2023-03-17T03:38:18.728Z,16.83
2023-03-17T03:39:18.743Z,16.83
2023-03-17T03:40:18.706Z,16.83
2023-03-17T03:41:18.698Z,16.82
2023-03-17T03:42:18.682Z,16.83
2023-03-17T03:43:23.257Z,16.82
2023-03-17T03:44:19.689Z,16.82
2023-03-17T03:45:18.656Z,16.82
2023-03-17T03:46:18.659Z,16.85
2023-03-17T03:47:18.657Z,16.83
2023-03-17T03:48:18.648Z,16.83
2023-03-17T03:49:18.635Z,16.83
2023-03-17T03:50:18.598Z,16.82
2023-03-17T03:51:18.607Z,16.83
2023-03-17T03:52:18.570Z,16.82
2023-03-17T03:53:18.582Z,16.82
2023-03-17T03:54:18.552Z,16.82
2023-03-17T03:55:18.540Z,16.82
2023-03-17T03:56:18.533Z,16.83
2023-03-17T03:57:18.542Z,16.83
2023-03-17T03:58:18.510Z,16.82
2023-03-17T03:59:18.516Z,16.82
2023-03-17T04:00:18.491Z,16.82
2023-03-17T04:01:18.476Z,16.83
2023-03-17T04:02:18.494Z,16.82
2023-03-17T04:03:18.454Z,16.82
2023-03-17T04:04:18.528Z,16.82
2023-03-17T04:05:18.459Z,16.81
2023-03-17T04:06:18.429Z,16.83
2023-03-17T04:07:18.422Z,16.82
2023-03-17T04:08:18.429Z,16.82
2023-03-17T04:09:18.390Z,16.81
2023-03-17T04:10:18.378Z,16.82
2023-03-17T04:11:18.389Z,16.83
2023-03-17T04:12:18.386Z,16.82
2023-03-17T04:13:18.348Z,16.82
2023-03-17T04:14:18.361Z,16.82
2023-03-17T04:15:18.350Z,16.82
2023-03-17T04:16:18.369Z,16.82
2023-03-17T04:17:18.323Z,16.82
2023-03-17T04:18:18.296Z,16.81
2023-03-17T04:19:18.378Z,16.82
2023-03-17T04:20:18.287Z,16.83
2023-03-17T04:21:18.340Z,16.81
2023-03-17T04:22:18.276Z,16.81
2023-03-17T04:23:18.243Z,16.81
2023-03-17T04:24:18.251Z,16.81
2023-03-17T04:25:18.235Z,16.82
2023-03-17T04:26:18.220Z,16.81
2023-03-17T04:27:18.205Z,16.81
2023-03-17T04:28:18.189Z,16.81
2023-03-17T04:29:18.196Z,16.82
2023-03-17T04:30:18.164Z,16.81
2023-03-17T04:31:18.261Z,16.81
2023-03-17T04:32:18.144Z,16.79
2023-03-17T04:33:18.136Z,16.82
2023-03-17T04:34:18.148Z,16.81
2023-03-17T04:35:18.117Z,16.79
2023-03-17T04:36:18.129Z,16.81
2023-03-17T04:37:18.120Z,16.81
2023-03-17T04:38:18.102Z,16.81
2023-03-17T04:39:18.076Z,16.81
2023-03-17T04:40:18.059Z,16.79
2023-03-17T04:41:18.047Z,16.81
2023-03-17T04:42:18.044Z,16.79
2023-03-17T04:43:18.048Z,16.81
2023-03-17T04:44:18.015Z,16.79
2023-03-17T04:45:18.022Z,16.81
2023-03-17T04:46:18.007Z,16.81
2023-03-17T04:47:17.982Z,16.81
2023-03-17T04:48:17.994Z,16.81
2023-03-17T04:49:17.961Z,16.79
2023-03-17T04:50:17.986Z,16.79
2023-03-17T04:51:17.976Z,16.81
2023-03-17T04:52:17.936Z,16.81
2023-03-17T04:53:17.971Z,16.81
2023-03-17T04:54:17.909Z,16.81
2023-03-17T04:55:17.898Z,16.79
2023-03-17T04:56:17.913Z,16.79
2023-03-17T04:57:17.879Z,16.79
2023-03-17T04:58:29.854Z,16.81
2023-03-17T04:59:18.881Z,16.81
2023-03-17T05:00:17.843Z,16.79
2023-03-17T05:01:17.907Z,16.79
2023-03-17T05:02:17.861Z,16.81
2023-03-17T05:03:26.779Z,16.81
2023-03-17T05:04:30.710Z,16.81
2023-03-17T05:05:18.828Z,16.79
2023-03-17T05:06:17.804Z,16.79
2023-03-17T05:07:17.772Z,16.79
2023-03-17T05:08:17.782Z,16.79
2023-03-17T05:09:17.793Z,16.79
2023-03-17T05:10:17.736Z,16.79
2023-03-17T05:11:17.733Z,16.79
2023-03-17T05:12:17.736Z,16.79
2023-03-17T05:13:17.707Z,16.78
2023-03-17T05:14:17.699Z,16.78
2023-03-17T05:15:17.689Z,16.79
2023-03-17T05:16:17.739Z,16.78
2023-03-17T05:17:17.665Z,16.81
2023-03-17T05:18:17.654Z,16.78
2023-03-17T05:19:17.668Z,16.79
2023-03-17T05:20:17.631Z,16.79
2023-03-17T05:21:17.637Z,16.79
2023-03-17T05:22:17.637Z,16.79
2023-03-17T05:23:17.602Z,16.79
2023-03-17T05:24:17.593Z,16.78
2023-03-17T05:25:17.601Z,16.78
2023-03-17T05:26:17.569Z,16.79
2023-03-17T05:27:17.586Z,16.78
2023-03-17T05:28:17.555Z,16.81
2023-03-17T05:29:17.557Z,16.79
2023-03-17T05:30:17.526Z,16.78
2023-03-17T05:31:17.553Z,16.79
2023-03-17T05:32:17.524Z,16.78
2023-03-17T05:33:17.490Z,16.78
2023-03-17T05:34:17.500Z,16.76
2023-03-17T05:35:17.480Z,16.78
2023-03-17T05:36:17.460Z,16.79
2023-03-17T05:37:17.456Z,16.78
2023-03-17T05:38:17.478Z,16.78
2023-03-17T05:39:17.486Z,16.78
2023-03-17T05:40:17.416Z,16.78
2023-03-17T05:41:17.433Z,16.78
2023-03-17T05:42:17.397Z,16.76
2023-03-17T05:43:17.390Z,16.79
2023-03-17T05:44:17.382Z,16.78
2023-03-17T05:45:17.381Z,16.78
2023-03-17T05:46:19.882Z,16.78
2023-03-17T05:47:17.373Z,16.78
2023-03-17T05:48:17.331Z,16.79
2023-03-17T05:49:17.347Z,16.79
2023-03-17T05:50:17.318Z,16.78
2023-03-17T05:51:17.303Z,16.78
2023-03-17T05:52:17.294Z,16.78
2023-03-17T05:53:17.278Z,16.78
2023-03-17T05:54:17.289Z,16.79
2023-03-17T05:55:17.270Z,16.78
2023-03-17T05:56:17.260Z,16.78
2023-03-17T05:57:17.263Z,16.78
2023-03-17T05:58:17.230Z,16.78
2023-03-17T05:59:17.233Z,16.78
2023-03-17T06:00:17.204Z,16.78
2023-03-17T06:01:17.194Z,16.78
2023-03-17T06:02:17.228Z,16.78
2023-03-17T06:03:17.222Z,16.76
2023-03-17T06:04:17.161Z,16.79
2023-03-17T06:05:17.175Z,16.78
2023-03-17T06:06:17.140Z,16.76
2023-03-17T06:07:17.149Z,16.78
2023-03-17T06:08:17.127Z,16.78
2023-03-17T06:09:17.107Z,16.76
2023-03-17T06:10:17.095Z,16.78
2023-03-17T06:11:17.086Z,16.78
2023-03-17T06:12:17.102Z,16.78
2023-03-17T06:13:17.103Z,16.78
2023-03-17T06:14:17.055Z,16.76
2023-03-17T06:15:17.099Z,16.76
2023-03-17T06:16:17.117Z,16.76
2023-03-17T06:17:17.024Z,16.78
2023-03-17T06:18:17.009Z,16.76
2023-03-17T06:19:17.007Z,16.76
2023-03-17T06:20:16.989Z,16.78
2023-03-17T06:21:16.991Z,16.76
2023-03-17T06:22:16.988Z,16.76
2023-03-17T06:23:16.956Z,16.78
2023-03-17T06:24:16.950Z,16.78
2023-03-17T06:25:16.937Z,16.76
2023-03-17T06:26:16.937Z,16.78
2023-03-17T06:27:16.932Z,16.76
2023-03-17T06:28:16.903Z,16.76
2023-03-17T06:29:16.919Z,16.76
2023-03-17T06:30:16.902Z,16.78
2023-03-17T06:31:16.905Z,16.76
2023-03-17T06:32:20.677Z,16.76
2023-03-17T06:33:16.871Z,16.78
2023-03-17T06:34:16.838Z,16.78
2023-03-17T06:35:16.828Z,16.76
2023-03-17T06:36:16.817Z,16.78
2023-03-17T06:37:16.804Z,16.76
2023-03-17T06:38:16.819Z,16.76
2023-03-17T06:39:16.809Z,16.76
2023-03-17T06:40:16.771Z,16.78
2023-03-17T06:41:16.759Z,16.76
2023-03-17T06:42:16.775Z,16.78
2023-03-17T06:43:16.765Z,16.76
2023-03-17T06:44:16.731Z,16.78
2023-03-17T06:45:16.742Z,16.79
2023-03-17T06:46:16.798Z,16.76
2023-03-17T06:47:16.696Z,16.78
2023-03-17T06:48:16.725Z,16.78
2023-03-17T06:49:16.674Z,16.79
2023-03-17T06:50:16.687Z,16.81
2023-03-17T06:51:16.655Z,16.79
2023-03-17T06:52:16.642Z,16.81
2023-03-17T06:53:16.634Z,16.81
2023-03-17T06:54:16.642Z,16.82
2023-03-17T06:55:16.611Z,16.82
2023-03-17T06:56:29.122Z,16.83
2023-03-17T06:57:17.587Z,16.83
2023-03-17T06:58:16.598Z,16.82
2023-03-17T06:59:16.569Z,16.82
2023-03-17T07:00:16.559Z,16.83
2023-03-17T07:01:16.752Z,16.82
2023-03-17T07:02:16.537Z,16.85
2023-03-17T07:03:16.525Z,16.83
2023-03-17T07:04:16.580Z,16.85
2023-03-17T07:05:16.518Z,16.82
2023-03-17T07:06:16.495Z,16.83
2023-03-17T07:07:16.506Z,16.83
2023-03-17T07:08:16.469Z,16.82
2023-03-17T07:09:16.473Z,16.83
2023-03-17T07:10:16.448Z,16.83
2023-03-17T07:11:16.466Z,16.83
2023-03-17T07:12:16.425Z,16.83
2023-03-17T07:13:16.422Z,16.85
2023-03-17T07:14:16.411Z,16.85
2023-03-17T07:15:16.416Z,16.83
2023-03-17T07:16:16.433Z,16.83
2023-03-17T07:17:16.412Z,16.83
2023-03-17T07:18:16.360Z,16.83
2023-03-17T07:19:16.352Z,16.83
2023-03-17T07:20:16.392Z,16.83
2023-03-17T07:21:16.331Z,16.85
2023-03-17T07:22:16.327Z,16.85
2023-03-17T07:23:16.316Z,16.85
2023-03-17T07:24:16.308Z,16.83
2023-03-17T07:25:16.304Z,16.85
2023-03-17T07:26:16.305Z,16.85
2023-03-17T07:27:16.285Z,16.85
2023-03-17T07:28:16.266Z,16.85
2023-03-17T07:29:16.242Z,16.86
2023-03-17T07:30:16.279Z,16.85
2023-03-17T07:31:16.293Z,16.85
2023-03-17T07:32:16.211Z,16.85
2023-03-17T07:33:16.224Z,16.85
2023-03-17T07:34:16.193Z,16.86
2023-03-17T07:35:16.249Z,16.86
2023-03-17T07:36:16.165Z,16.86
2023-03-17T07:37:16.178Z,16.85
2023-03-17T07:38:16.155Z,16.88
2023-03-17T07:39:16.142Z,16.86
2023-03-17T07:40:16.128Z,16.88
2023-03-17T07:41:16.134Z,16.88
2023-03-17T07:42:16.132Z,16.88
2023-03-17T07:43:16.101Z,16.86
2023-03-17T07:44:16.084Z,16.89
2023-03-17T07:45:16.106Z,16.89
2023-03-17T07:46:16.119Z,16.88
2023-03-17T07:47:16.049Z,16.88
2023-03-17T07:48:16.042Z,16.89
2023-03-17T07:49:16.065Z,16.89
2023-03-17T07:50:16.020Z,16.89
2023-03-17T07:51:16.030Z,16.89
2023-03-17T07:52:16.000Z,16.89
2023-03-17T07:53:15.982Z,16.89
2023-03-17T07:54:16.010Z,16.89
2023-03-17T07:55:15.988Z,16.89
2023-03-17T07:56:15.987Z,16.89
2023-03-17T07:57:16.015Z,16.89
2023-03-17T07:58:16.130Z,16.89
2023-03-17T07:59:15.920Z,16.89
2023-03-17T08:00:15.906Z,16.91
2023-03-17T08:01:15.969Z,16.89
2023-03-17T08:02:16.044Z,16.89
2023-03-17T08:03:15.968Z,16.91
2023-03-17T08:04:15.919Z,16.89
2023-03-17T08:05:15.932Z,16.89
2023-03-17T08:06:15.856Z,16.89
2023-03-17T08:07:15.903Z,16.88
2023-03-17T08:08:15.842Z,16.89
2023-03-17T08:09:15.816Z,16.88
2023-03-17T08:10:15.803Z,16.88
2023-03-17T08:11:15.845Z,16.89
2023-03-17T08:12:15.910Z,16.88
2023-03-17T08:13:15.797Z,16.88
2023-03-17T08:14:15.772Z,16.88
2023-03-17T08:15:15.773Z,16.88
2023-03-17T08:16:15.824Z,16.88
2023-03-17T08:17:15.739Z,16.88
2023-03-17T08:18:15.762Z,16.88
2023-03-17T08:19:15.746Z,16.89
2023-03-17T08:20:15.765Z,16.88
2023-03-17T08:21:15.962Z,16.89
2023-03-17T08:22:15.697Z,16.88
2023-03-17T08:23:15.697Z,16.89
2023-03-17T08:24:15.740Z,16.89
2023-03-17T08:25:15.662Z,16.89
2023-03-17T08:26:15.701Z,16.88
2023-03-17T08:27:15.624Z,16.88
2023-03-17T08:28:15.674Z,16.88
2023-03-17T08:29:15.618Z,16.89
2023-03-17T08:30:15.601Z,16.88
2023-03-17T08:31:15.640Z,16.88
2023-03-17T08:32:15.608Z,16.88
2023-03-17T08:33:15.648Z,16.88
2023-03-17T08:34:15.614Z,16.88
2023-03-17T08:35:15.556Z,16.89
2023-03-17T08:36:15.539Z,16.91
2023-03-17T08:37:15.571Z,16.89
2023-03-17T08:38:15.544Z,16.89
2023-03-17T08:39:15.496Z,16.91
2023-03-17T08:40:15.504Z,16.89
2023-03-17T08:41:15.478Z,16.89
2023-03-17T08:42:15.499Z,16.91
2023-03-17T08:43:15.452Z,16.91
2023-03-17T08:44:15.448Z,16.93
2023-03-17T08:45:15.425Z,16.89
2023-03-17T08:46:15.482Z,16.93
2023-03-17T08:47:15.411Z,16.91
2023-03-17T08:48:15.461Z,16.93
2023-03-17T08:49:15.385Z,16.93
2023-03-17T08:50:15.371Z,16.93
2023-03-17T08:51:18.189Z,16.91
2023-03-17T08:52:15.372Z,16.91
2023-03-17T08:53:15.370Z,16.91
2023-03-17T08:54:15.350Z,16.93
2023-03-17T08:55:15.337Z,16.93
2023-03-17T08:56:15.312Z,16.93
2023-03-17T08:57:15.810Z,16.93
2023-03-17T08:58:15.289Z,16.91
2023-03-17T08:59:16.892Z,16.91
2023-03-17T09:00:15.273Z,16.93
2023-03-17T09:01:15.354Z,16.91
2023-03-17T09:02:15.297Z,16.91
2023-03-17T09:03:15.237Z,16.91
2023-03-17T09:04:15.227Z,16.93
2023-03-17T09:05:15.240Z,16.91
2023-03-17T09:06:15.207Z,16.91
2023-03-17T09:07:15.198Z,16.91
2023-03-17T09:08:15.256Z,16.89
2023-03-17T09:09:15.213Z,16.91
2023-03-17T09:10:15.169Z,16.91
2023-03-17T09:11:15.152Z,16.91
2023-03-17T09:12:15.142Z,16.91
2023-03-17T09:13:15.124Z,16.91
2023-03-17T09:14:15.136Z,16.91
2023-03-17T09:15:15.103Z,16.91
2023-03-17T09:16:15.155Z,16.91
2023-03-17T09:17:15.082Z,16.93
2023-03-17T09:18:15.099Z,16.93
2023-03-17T09:19:15.060Z,16.94
2023-03-17T09:20:15.049Z,16.93
2023-03-17T09:21:15.040Z,16.94
2023-03-17T09:22:15.031Z,16.93
2023-03-17T09:23:15.037Z,16.94
2023-03-17T09:24:15.027Z,16.96
2023-03-17T09:25:15.018Z,16.96
2023-03-17T09:26:14.985Z,16.96
2023-03-17T09:27:14.993Z,16.97
2023-03-17T09:28:14.997Z,16.98
2023-03-17T09:29:14.951Z,16.97
2023-03-17T09:30:14.940Z,16.97
2023-03-17T09:31:15.006Z,16.98
2023-03-17T09:32:14.918Z,17.00
2023-03-17T09:33:14.909Z,16.98
2023-03-17T09:34:14.924Z,17.00
2023-03-17T09:35:14.889Z,17.00
2023-03-17T09:36:14.896Z,17.00
2023-03-17T09:37:14.863Z,17.01
2023-03-17T09:38:14.851Z,17.01
2023-03-17T09:39:14.871Z,17.01
2023-03-17T09:40:14.832Z,17.01
2023-03-17T09:41:14.859Z,17.01
2023-03-17T09:42:14.807Z,17.00
2023-03-17T09:43:14.816Z,17.01
2023-03-17T09:44:14.789Z,17.03
2023-03-17T09:45:14.784Z,17.01
2023-03-17T09:46:14.790Z,17.01
2023-03-17T09:47:14.780Z,17.00
2023-03-17T09:48:14.741Z,17.01
2023-03-17T09:49:14.740Z,17.03
2023-03-17T09:50:14.720Z,17.03
2023-03-17T09:51:14.718Z,17.01
2023-03-17T09:52:14.868Z,17.01
2023-03-17T09:53:14.689Z,17.03
2023-03-17T09:54:14.676Z,17.01
2023-03-17T09:55:14.675Z,17.01
2023-03-17T09:56:14.656Z,17.00
2023-03-17T09:57:14.667Z,17.01
2023-03-17T09:58:14.669Z,17.00
2023-03-17T09:59:14.623Z,17.01
2023-03-17T10:00:14.664Z,17.01
2023-03-17T10:01:14.606Z,17.01
2023-03-17T10:02:14.657Z,17.01
2023-03-17T10:03:14.577Z,17.01
2023-03-17T10:04:15.627Z,17.03
2023-03-17T10:05:14.602Z,17.03
2023-03-17T10:06:14.559Z,17.01
2023-03-17T10:07:14.535Z,17.03
2023-03-17T10:08:29.595Z,17.04
2023-03-17T10:09:15.510Z,17.04
2023-03-17T10:10:14.502Z,17.06
2023-03-17T10:11:14.492Z,17.07
2023-03-17T10:12:14.487Z,17.07
2023-03-17T10:13:14.519Z,17.07
2023-03-17T10:14:14.461Z,17.08
2023-03-17T10:15:14.474Z,17.11
2023-03-17T10:16:14.510Z,17.11
2023-03-17T10:17:14.425Z,17.08
2023-03-17T10:18:14.418Z,17.11
2023-03-17T10:19:14.443Z,17.11
2023-03-17T10:20:14.397Z,17.08
2023-03-17T10:21:14.383Z,17.11
2023-03-17T10:22:14.389Z,17.11
2023-03-17T10:23:14.370Z,17.08
2023-03-17T10:24:14.373Z,17.08
2023-03-17T10:25:14.358Z,17.11
2023-03-17T10:26:14.353Z,17.08
2023-03-17T10:27:14.325Z,17.08
2023-03-17T10:28:14.309Z,17.08
2023-03-17T10:29:14.322Z,17.08
2023-03-17T10:30:14.289Z,17.08
2023-03-17T10:31:14.317Z,17.08
2023-03-17T10:32:14.266Z,17.07
2023-03-17T10:33:14.256Z,17.08
2023-03-17T10:34:14.271Z,17.08
2023-03-17T10:35:14.255Z,17.11
2023-03-17T10:36:14.328Z,17.08
2023-03-17T10:37:14.220Z,17.08
2023-03-17T10:38:14.817Z,17.11
2023-03-17T10:39:14.210Z,17.11
2023-03-17T10:40:14.199Z,17.11
2023-03-17T10:41:14.199Z,17.11
2023-03-17T10:42:14.172Z,17.11
2023-03-17T10:43:14.151Z,17.12
2023-03-17T10:44:14.137Z,17.11
2023-03-17T10:45:14.151Z,17.11
2023-03-17T10:46:14.117Z,17.08
2023-03-17T10:47:14.182Z,17.07
2023-03-17T10:48:14.099Z,17.07
2023-03-17T10:49:14.089Z,17.08
2023-03-17T10:50:14.092Z,17.08
2023-03-17T10:51:14.067Z,17.07
2023-03-17T10:52:14.083Z,17.07
2023-03-17T10:53:14.042Z,17.06
2023-03-17T10:54:14.033Z,17.07
2023-03-17T10:55:14.021Z,17.08
2023-03-17T10:56:14.014Z,17.08
2023-03-17T10:57:14.043Z,17.08
2023-03-17T10:58:14.009Z,17.07
2023-03-17T10:59:14.009Z,17.07
2023-03-17T11:00:13.967Z,17.07
2023-03-17T11:01:14.056Z,17.07
2023-03-17T11:02:13.968Z,17.07
2023-03-17T11:03:13.938Z,17.08
2023-03-17T11:04:13.952Z,17.08
2023-03-17T11:05:13.923Z,17.08
2023-03-17T11:06:13.903Z,17.12
2023-03-17T11:07:13.893Z,17.12
2023-03-17T11:08:13.903Z,17.12
2023-03-17T11:09:13.878Z,17.14
2023-03-17T11:10:13.869Z,17.14
2023-03-17T11:11:13.856Z,17.15
2023-03-17T11:12:13.841Z,17.14
2023-03-17T11:13:13.849Z,17.15
2023-03-17T11:14:13.818Z,17.16
2023-03-17T11:15:13.806Z,17.16
2023-03-17T11:16:13.843Z,17.15
2023-03-17T11:17:13.829Z,17.16
2023-03-17T11:18:13.801Z,17.16
2023-03-17T11:19:13.779Z,17.16
2023-03-17T11:20:13.765Z,17.16
2023-03-17T11:21:13.742Z,17.15
2023-03-17T11:22:13.749Z,17.15
2023-03-17T11:23:13.740Z,17.15
2023-03-17T11:24:13.709Z,17.15
2023-03-17T11:25:13.716Z,17.12
2023-03-17T11:26:13.703Z,17.12
2023-03-17T11:27:13.683Z,17.14
2023-03-17T11:28:13.666Z,17.14
2023-03-17T11:29:13.657Z,17.14
2023-03-17T11:30:14.818Z,17.12
2023-03-17T11:31:13.675Z,17.12
2023-03-17T11:32:13.645Z,17.11
2023-03-17T11:33:13.715Z,17.11
2023-03-17T11:34:13.601Z,17.11
2023-03-17T11:35:13.611Z,17.08
2023-03-17T11:36:13.581Z,17.11
2023-03-17T11:37:13.580Z,17.11
2023-03-17T11:38:13.559Z,17.11
2023-03-17T11:39:13.644Z,17.11
2023-03-17T11:40:13.561Z,17.08
2023-03-17T11:41:13.585Z,17.11
2023-03-17T11:42:13.527Z,17.12
2023-03-17T11:43:13.513Z,17.11
2023-03-17T11:44:13.503Z,17.11
2023-03-17T11:45:13.488Z,17.12
2023-03-17T11:46:13.592Z,17.12
2023-03-17T11:47:13.465Z,17.14
2023-03-17T11:48:13.449Z,17.11
2023-03-17T11:49:13.464Z,17.11
2023-03-17T11:50:13.435Z,17.12
2023-03-17T11:51:13.462Z,17.12
2023-03-17T11:52:13.406Z,17.08
2023-03-17T11:53:13.400Z,17.12
2023-03-17T11:54:13.393Z,17.12
2023-03-17T11:55:13.372Z,17.11
2023-03-17T11:56:13.384Z,17.12
2023-03-17T11:57:13.377Z,17.11
2023-03-17T11:58:13.361Z,17.12
2023-03-17T11:59:13.326Z,17.14
2023-03-17T12:00:13.319Z,17.14
2023-03-17T12:01:13.315Z,17.15
2023-03-17T12:02:13.316Z,17.15
2023-03-17T12:03:13.350Z,17.15
2023-03-17T12:04:13.294Z,17.15
2023-03-17T12:05:13.322Z,17.15
2023-03-17T12:06:13.249Z,17.16
2023-03-17T12:07:13.260Z,17.15
2023-03-17T12:08:13.232Z,17.16
2023-03-17T12:09:13.220Z,17.16
2023-03-17T12:10:13.211Z,17.15
2023-03-17T12:11:13.194Z,17.15
2023-03-17T12:12:14.909Z,17.15
2023-03-17T12:13:13.177Z,17.15
2023-03-17T12:14:13.163Z,17.15
2023-03-17T12:15:13.152Z,17.14
2023-03-17T12:16:13.255Z,17.15
2023-03-17T12:17:13.136Z,17.18
2023-03-17T12:18:13.119Z,17.18
2023-03-17T12:19:13.115Z,17.18
2023-03-17T12:20:13.103Z,17.18
2023-03-17T12:21:13.127Z,17.16
2023-03-17T12:22:13.096Z,17.18
2023-03-17T12:23:13.065Z,17.18
2023-03-17T12:24:13.055Z,17.19
2023-03-17T12:25:13.040Z,17.18
2023-03-17T12:26:13.034Z,17.16
2023-03-17T12:27:13.042Z,17.18
2023-03-17T12:28:13.007Z,17.18
2023-03-17T12:29:13.001Z,17.19
2023-03-17T12:30:12.987Z,17.18
2023-03-17T12:31:13.041Z,17.16
2023-03-17T12:32:12.990Z,17.16
2023-03-17T12:33:12.956Z,17.18
2023-03-17T12:34:12.946Z,17.18
2023-03-17T12:35:12.934Z,17.16
2023-03-17T12:36:12.975Z,17.18
2023-03-17T12:37:12.962Z,17.16
2023-03-17T12:38:12.900Z,17.16
2023-03-17T12:39:12.893Z,17.18
2023-03-17T12:40:12.880Z,17.18
2023-03-17T12:41:12.899Z,17.18
2023-03-17T12:42:12.855Z,17.16
2023-03-17T12:43:12.853Z,17.18
2023-03-17T12:44:12.836Z,17.18
2023-03-17T12:45:12.833Z,17.16
2023-03-17T12:46:12.857Z,17.16
2023-03-17T12:47:12.825Z,17.16
2023-03-17T12:48:12.794Z,17.16
2023-03-17T12:49:12.785Z,17.16
2023-03-17T12:50:12.833Z,17.18
2023-03-17T12:51:12.759Z,17.16
2023-03-17T12:52:12.770Z,17.15